Terminal Aerodrome Forecast
Issued by NWS St Louis, MO

Home | Current Version | Previous Version | Text Only | Print | Product List | Glossary On
Versions: 1 2 3 4 5 6 7 8 9 10 11 12 13 14 15 16 17 18 19 20
000
FTUS43 KLSX 292300
TAFCOU
TAF
KCOU 292320Z 3000/3024 27010KT P6SM SCT060
     FM300200 31007KT P6SM SKC
     FM301200 22005KT P6SM SKC
     FM301800 22011KT P6SM SKC=

USA.gov is the U.S. government's official web portal to all federal, state and local government web resources and services.